sensor_id;sensor_type;location;lat;lon;timestamp;P1;durP1;ratioP1;P2;durP2;ratioP2
12519;SDS011;6325;49.540;8.364;2022-08-19T00:00:32;9.07;;;8.48;;
12519;SDS011;6325;49.540;8.364;2022-08-19T00:02:58;9.15;;;8.55;;
12519;SDS011;6325;49.540;8.364;2022-08-19T00:05:25;11.15;;;10.35;;
12519;SDS011;6325;49.540;8.364;2022-08-19T00:07:52;9.90;;;9.20;;
12519;SDS011;6325;49.540;8.364;2022-08-19T00:10:19;10.35;;;9.65;;
12519;SDS011;6325;49.540;8.364;2022-08-19T00:12:47;9.90;;;9.20;;
12519;SDS011;6325;49.540;8.364;2022-08-19T00:15:15;9.55;;;8.95;;
12519;SDS011;6325;49.540;8.364;2022-08-19T00:17:44;9.40;;;8.80;;
12519;SDS011;6325;49.540;8.364;2022-08-19T00:20:12;9.60;;;8.93;;
12519;SDS011;6325;49.540;8.364;2022-08-19T00:22:41;9.65;;;9.05;;
12519;SDS011;6325;49.540;8.364;2022-08-19T00:25:09;9.18;;;8.57;;
12519;SDS011;6325;49.540;8.364;2022-08-19T00:27:36;10.03;;;9.33;;
12519;SDS011;6325;49.540;8.364;2022-08-19T00:30:04;8.73;;;8.13;;
12519;SDS011;6325;49.540;8.364;2022-08-19T00:32:38;9.85;;;9.20;;
12519;SDS011;6325;49.540;8.364;2022-08-19T00:35:05;8.40;;;7.90;;
12519;SDS011;6325;49.540;8.364;2022-08-19T00:37:33;9.60;;;9.00;;
12519;SDS011;6325;49.540;8.364;2022-08-19T00:40:00;8.73;;;8.13;;
12519;SDS011;6325;49.540;8.364;2022-08-19T00:42:28;8.85;;;8.25;;
12519;SDS011;6325;49.540;8.364;2022-08-19T00:44:56;9.52;;;8.93;;
12519;SDS011;6325;49.540;8.364;2022-08-19T00:47:23;10.60;;;9.90;;
12519;SDS011;6325;49.540;8.364;2022-08-19T00:49:52;11.02;;;10.23;;
12519;SDS011;6325;49.540;8.364;2022-08-19T00:52:23;10.75;;;10.02;;
12519;SDS011;6325;49.540;8.364;2022-08-19T00:54:53;9.90;;;9.20;;
12519;SDS011;6325;49.540;8.364;2022-08-19T00:57:22;10.15;;;9.45;;
12519;SDS011;6325;49.540;8.364;2022-08-19T00:59:52;9.65;;;9.00;;
12519;SDS011;6325;49.540;8.364;2022-08-19T01:02:21;11.88;;;10.98;;
12519;SDS011;6325;49.540;8.364;2022-08-19T01:04:50;10.88;;;10.18;;
12519;SDS011;6325;49.540;8.364;2022-08-19T01:07:17;10.73;;;9.98;;
12519;SDS011;6325;49.540;8.364;2022-08-19T01:09:44;9.25;;;8.65;;
12519;SDS011;6325;49.540;8.364;2022-08-19T01:12:11;9.38;;;8.77;;
12519;SDS011;6325;49.540;8.364;2022-08-19T01:14:39;11.07;;;10.27;;
12519;SDS011;6325;49.540;8.364;2022-08-19T01:17:06;10.90;;;10.10;;
12519;SDS011;6325;49.540;8.364;2022-08-19T01:19:35;11.13;;;10.40;;
12519;SDS011;6325;49.540;8.364;2022-08-19T01:22:08;13.20;;;12.30;;
12519;SDS011;6325;49.540;8.364;2022-08-19T01:24:42;11.60;;;10.80;;
12519;SDS011;6325;49.540;8.364;2022-08-19T01:27:09;11.10;;;10.32;;
12519;SDS011;6325;49.540;8.364;2022-08-19T01:29:37;10.55;;;9.85;;
12519;SDS011;6325;49.540;8.364;2022-08-19T01:32:05;11.13;;;10.32;;
12519;SDS011;6325;49.540;8.364;2022-08-19T01:34:33;10.85;;;10.05;;
12519;SDS011;6325;49.540;8.364;2022-08-19T01:37:01;9.30;;;8.70;;
12519;SDS011;6325;49.540;8.364;2022-08-19T01:39:33;9.65;;;9.05;;
12519;SDS011;6325;49.540;8.364;2022-08-19T01:42:01;9.73;;;9.13;;
12519;SDS011;6325;49.540;8.364;2022-08-19T01:44:29;10.60;;;9.90;;
12519;SDS011;6325;49.540;8.364;2022-08-19T01:46:56;10.73;;;10.02;;
12519;SDS011;6325;49.540;8.364;2022-08-19T01:49:23;11.00;;;10.20;;
12519;SDS011;6325;49.540;8.364;2022-08-19T01:51:51;10.20;;;9.50;;
12519;SDS011;6325;49.540;8.364;2022-08-19T01:54:19;11.88;;;10.98;;
12519;SDS011;6325;49.540;8.364;2022-08-19T01:56:48;10.70;;;9.90;;
12519;SDS011;6325;49.540;8.364;2022-08-19T01:59:18;9.98;;;9.27;;
12519;SDS011;6325;49.540;8.364;2022-08-19T02:01:48;12.63;;;11.63;;
12519;SDS011;6325;49.540;8.364;2022-08-19T02:04:15;10.98;;;10.23;;
12519;SDS011;6325;49.540;8.364;2022-08-19T02:06:42;9.50;;;8.90;;
12519;SDS011;6325;49.540;8.364;2022-08-19T02:09:09;8.80;;;8.20;;
12519;SDS011;6325;49.540;8.364;2022-08-19T02:11:36;8.70;;;8.17;;
12519;SDS011;6325;49.540;8.364;2022-08-19T02:14:05;10.50;;;9.80;;
12519;SDS011;6325;49.540;8.364;2022-08-19T02:16:35;9.68;;;9.05;;
12519;SDS011;6325;49.540;8.364;2022-08-19T02:19:03;8.65;;;8.15;;
12519;SDS011;6325;49.540;8.364;2022-08-19T02:21:30;9.52;;;8.93;;
12519;SDS011;6325;49.540;8.364;2022-08-19T02:23:58;9.73;;;9.13;;
12519;SDS011;6325;49.540;8.364;2022-08-19T02:26:25;11.60;;;10.80;;
12519;SDS011;6325;49.540;8.364;2022-08-19T02:28:54;10.73;;;10.02;;
12519;SDS011;6325;49.540;8.364;2022-08-19T02:31:22;10.35;;;9.65;;
12519;SDS011;6325;49.540;8.364;2022-08-19T02:33:52;10.33;;;9.63;;
12519;SDS011;6325;49.540;8.364;2022-08-19T02:36:20;9.73;;;9.05;;
12519;SDS011;6325;49.540;8.364;2022-08-19T02:38:47;11.10;;;10.30;;
12519;SDS011;6325;49.540;8.364;2022-08-19T02:41:15;11.63;;;10.82;;
12519;SDS011;6325;49.540;8.364;2022-08-19T02:43:44;10.98;;;10.18;;
12519;SDS011;6325;49.540;8.364;2022-08-19T02:46:13;10.45;;;9.75;;
12519;SDS011;6325;49.540;8.364;2022-08-19T02:48:42;11.45;;;10.65;;
12519;SDS011;6325;49.540;8.364;2022-08-19T02:51:16;10.98;;;10.27;;
12519;SDS011;6325;49.540;8.364;2022-08-19T02:53:44;10.57;;;9.80;;
12519;SDS011;6325;49.540;8.364;2022-08-19T02:56:11;12.70;;;11.80;;
12519;SDS011;6325;49.540;8.364;2022-08-19T02:58:38;11.25;;;10.45;;
12519;SDS011;6325;49.540;8.364;2022-08-19T03:01:05;11.32;;;10.52;;
12519;SDS011;6325;49.540;8.364;2022-08-19T03:03:32;10.17;;;9.47;;
12519;SDS011;6325;49.540;8.364;2022-08-19T03:06:03;10.25;;;9.55;;
12519;SDS011;6325;49.540;8.364;2022-08-19T03:08:33;11.43;;;10.63;;
12519;SDS011;6325;49.540;8.364;2022-08-19T03:11:01;9.70;;;9.10;;
12519;SDS011;6325;49.540;8.364;2022-08-19T03:13:28;9.88;;;9.18;;
12519;SDS011;6325;49.540;8.364;2022-08-19T03:15:55;10.73;;;9.95;;
12519;SDS011;6325;49.540;8.364;2022-08-19T03:18:22;10.70;;;10.00;;
12519;SDS011;6325;49.540;8.364;2022-08-19T03:20:50;10.55;;;9.85;;
12519;SDS011;6325;49.540;8.364;2022-08-19T03:23:19;11.75;;;10.95;;
12519;SDS011;6325;49.540;8.364;2022-08-19T03:25:49;9.85;;;9.15;;
12519;SDS011;6325;49.540;8.364;2022-08-19T03:28:17;11.65;;;10.85;;
12519;SDS011;6325;49.540;8.364;2022-08-19T03:30:53;11.43;;;10.52;;
12519;SDS011;6325;49.540;8.364;2022-08-19T03:33:22;10.82;;;10.13;;
12519;SDS011;6325;49.540;8.364;2022-08-19T03:35:59;11.10;;;10.30;;
12519;SDS011;6325;49.540;8.364;2022-08-19T03:38:27;10.48;;;9.77;;
12519;SDS011;6325;49.540;8.364;2022-08-19T03:40:55;10.80;;;10.00;;
12519;SDS011;6325;49.540;8.364;2022-08-19T03:43:22;10.60;;;9.90;;
12519;SDS011;6325;49.540;8.364;2022-08-19T03:45:49;12.40;;;11.30;;
12519;SDS011;6325;49.540;8.364;2022-08-19T03:48:27;9.88;;;9.27;;
12519;SDS011;6325;49.540;8.364;2022-08-19T03:50:55;11.50;;;10.70;;
12519;SDS011;6325;49.540;8.364;2022-08-19T03:53:23;10.82;;;10.02;;
12519;SDS011;6325;49.540;8.364;2022-08-19T03:55:50;10.07;;;9.48;;
12519;SDS011;6325;49.540;8.364;2022-08-19T03:58:19;10.52;;;9.82;;
12519;SDS011;6325;49.540;8.364;2022-08-19T04:00:46;11.37;;;10.57;;
12519;SDS011;6325;49.540;8.364;2022-08-19T04:03:13;10.60;;;9.80;;
12519;SDS011;6325;49.540;8.364;2022-08-19T04:05:40;9.77;;;9.18;;
12519;SDS011;6325;49.540;8.364;2022-08-19T04:08:07;8.30;;;7.80;;
12519;SDS011;6325;49.540;8.364;2022-08-19T04:10:34;9.00;;;8.40;;
12519;SDS011;6325;49.540;8.364;2022-08-19T04:13:01;10.48;;;9.70;;
12519;SDS011;6325;49.540;8.364;2022-08-19T04:15:30;10.63;;;9.90;;
12519;SDS011;6325;49.540;8.364;2022-08-19T04:18:04;12.00;;;11.10;;
12519;SDS011;6325;49.540;8.364;2022-08-19T04:20:32;9.65;;;8.95;;
12519;SDS011;6325;49.540;8.364;2022-08-19T04:23:03;11.27;;;10.38;;
12519;SDS011;6325;49.540;8.364;2022-08-19T04:25:34;11.05;;;10.30;;
12519;SDS011;6325;49.540;8.364;2022-08-19T04:28:02;11.18;;;10.27;;
12519;SDS011;6325;49.540;8.364;2022-08-19T04:30:30;9.15;;;8.55;;
12519;SDS011;6325;49.540;8.364;2022-08-19T04:33:03;8.98;;;8.38;;
12519;SDS011;6325;49.540;8.364;2022-08-19T04:35:34;8.40;;;7.80;;
12519;SDS011;6325;49.540;8.364;2022-08-19T04:38:01;8.57;;;7.97;;
12519;SDS011;6325;49.540;8.364;2022-08-19T04:40:28;10.70;;;9.90;;
12519;SDS011;6325;49.540;8.364;2022-08-19T04:43:12;11.07;;;10.27;;
12519;SDS011;6325;49.540;8.364;2022-08-19T04:45:42;9.40;;;8.80;;
12519;SDS011;6325;49.540;8.364;2022-08-19T04:48:09;8.85;;;8.25;;
12519;SDS011;6325;49.540;8.364;2022-08-19T04:50:39;9.40;;;8.70;;
12519;SDS011;6325;49.540;8.364;2022-08-19T04:53:06;10.75;;;9.95;;
12519;SDS011;6325;49.540;8.364;2022-08-19T04:55:33;8.20;;;7.70;;
12519;SDS011;6325;49.540;8.364;2022-08-19T04:58:01;8.50;;;7.90;;
12519;SDS011;6325;49.540;8.364;2022-08-19T05:00:28;9.30;;;8.70;;
12519;SDS011;6325;49.540;8.364;2022-08-19T05:02:57;8.73;;;8.13;;
12519;SDS011;6325;49.540;8.364;2022-08-19T05:05:24;10.40;;;9.70;;
12519;SDS011;6325;49.540;8.364;2022-08-19T05:07:51;8.57;;;8.00;;
12519;SDS011;6325;49.540;8.364;2022-08-19T05:10:18;9.00;;;8.32;;
12519;SDS011;6325;49.540;8.364;2022-08-19T05:12:45;9.32;;;8.73;;
12519;SDS011;6325;49.540;8.364;2022-08-19T05:15:12;8.88;;;8.18;;
12519;SDS011;6325;49.540;8.364;2022-08-19T05:17:39;10.35;;;9.55;;
12519;SDS011;6325;49.540;8.364;2022-08-19T05:20:28;10.85;;;10.05;;
12519;SDS011;6325;49.540;8.364;2022-08-19T05:23:12;9.30;;;8.70;;
12519;SDS011;6325;49.540;8.364;2022-08-19T05:25:40;8.70;;;8.18;;
12519;SDS011;6325;49.540;8.364;2022-08-19T05:28:08;8.90;;;8.30;;
12519;SDS011;6325;49.540;8.364;2022-08-19T05:30:34;9.73;;;9.02;;
12519;SDS011;6325;49.540;8.364;2022-08-19T05:33:01;10.00;;;9.30;;
12519;SDS011;6325;49.540;8.364;2022-08-19T05:35:30;8.40;;;7.80;;
12519;SDS011;6325;49.540;8.364;2022-08-19T05:37:56;8.73;;;8.13;;
12519;SDS011;6325;49.540;8.364;2022-08-19T05:40:23;9.30;;;8.70;;
12519;SDS011;6325;49.540;8.364;2022-08-19T05:42:50;8.48;;;7.90;;
12519;SDS011;6325;49.540;8.364;2022-08-19T05:45:18;10.75;;;9.95;;
12519;SDS011;6325;49.540;8.364;2022-08-19T05:47:45;9.65;;;9.02;;
12519;SDS011;6325;49.540;8.364;2022-08-19T05:50:12;9.35;;;8.75;;
12519;SDS011;6325;49.540;8.364;2022-08-19T05:52:40;7.93;;;7.40;;
12519;SDS011;6325;49.540;8.364;2022-08-19T05:55:07;7.30;;;6.90;;
12519;SDS011;6325;49.540;8.364;2022-08-19T05:57:35;8.77;;;8.18;;
12519;SDS011;6325;49.540;8.364;2022-08-19T06:00:03;9.00;;;8.32;;
12519;SDS011;6325;49.540;8.364;2022-08-19T06:02:34;9.90;;;9.20;;
12519;SDS011;6325;49.540;8.364;2022-08-19T06:05:01;7.95;;;7.45;;
12519;SDS011;6325;49.540;8.364;2022-08-19T06:07:29;7.78;;;7.28;;
12519;SDS011;6325;49.540;8.364;2022-08-19T06:09:57;8.20;;;7.60;;
12519;SDS011;6325;49.540;8.364;2022-08-19T06:12:24;7.50;;;7.00;;
12519;SDS011;6325;49.540;8.364;2022-08-19T06:14:56;8.00;;;7.50;;
12519;SDS011;6325;49.540;8.364;2022-08-19T06:17:23;7.88;;;7.30;;
12519;SDS011;6325;49.540;8.364;2022-08-19T06:19:51;7.00;;;6.60;;
12519;SDS011;6325;49.540;8.364;2022-08-19T06:22:18;8.55;;;7.95;;
12519;SDS011;6325;49.540;8.364;2022-08-19T06:24:45;7.10;;;6.65;;
12519;SDS011;6325;49.540;8.364;2022-08-19T06:27:13;8.00;;;7.50;;
12519;SDS011;6325;49.540;8.364;2022-08-19T06:29:40;8.75;;;7.95;;
12519;SDS011;6325;49.540;8.364;2022-08-19T06:32:07;9.35;;;8.65;;
12519;SDS011;6325;49.540;8.364;2022-08-19T06:34:34;8.40;;;7.80;;
12519;SDS011;6325;49.540;8.364;2022-08-19T06:37:01;7.97;;;7.40;;
12519;SDS011;6325;49.540;8.364;2022-08-19T06:39:31;7.47;;;6.90;;
12519;SDS011;6325;49.540;8.364;2022-08-19T06:42:00;5.97;;;5.60;;
12519;SDS011;6325;49.540;8.364;2022-08-19T06:44:33;6.60;;;6.20;;
12519;SDS011;6325;49.540;8.364;2022-08-19T06:47:01;7.50;;;6.90;;
12519;SDS011;6325;49.540;8.364;2022-08-19T06:49:29;6.95;;;6.50;;
12519;SDS011;6325;49.540;8.364;2022-08-19T06:51:57;6.30;;;5.88;;
12519;SDS011;6325;49.540;8.364;2022-08-19T06:54:24;7.27;;;6.77;;
12519;SDS011;6325;49.540;8.364;2022-08-19T06:56:53;7.23;;;6.63;;
12519;SDS011;6325;49.540;8.364;2022-08-19T06:59:21;7.18;;;6.68;;
12519;SDS011;6325;49.540;8.364;2022-08-19T07:01:54;5.45;;;5.13;;
12519;SDS011;6325;49.540;8.364;2022-08-19T07:04:23;7.50;;;6.90;;
12519;SDS011;6325;49.540;8.364;2022-08-19T07:06:56;7.88;;;7.25;;
12519;SDS011;6325;49.540;8.364;2022-08-19T09:04:15;5.35;;;5.05;;
12519;SDS011;6325;49.540;8.364;2022-08-19T09:06:44;4.95;;;4.57;;
12519;SDS011;6325;49.540;8.364;2022-08-19T09:09:18;5.90;;;5.50;;
12519;SDS011;6325;49.540;8.364;2022-08-19T09:11:53;5.88;;;5.47;;
12519;SDS011;6325;49.540;8.364;2022-08-19T09:14:33;5.87;;;5.47;;
12519;SDS011;6325;49.540;8.364;2022-08-19T09:17:06;6.03;;;5.53;;
12519;SDS011;6325;49.540;8.364;2022-08-19T09:19:35;5.00;;;4.60;;
12519;SDS011;6325;49.540;8.364;2022-08-19T09:22:12;6.00;;;5.50;;
12519;SDS011;6325;49.540;8.364;2022-08-19T09:24:39;5.10;;;4.70;;
12519;SDS011;6325;49.540;8.364;2022-08-19T09:27:06;5.75;;;5.25;;
12519;SDS011;6325;49.540;8.364;2022-08-19T09:29:33;5.05;;;4.70;;
12519;SDS011;6325;49.540;8.364;2022-08-19T09:32:00;4.70;;;4.40;;
12519;SDS011;6325;49.540;8.364;2022-08-19T09:34:27;5.10;;;4.70;;
12519;SDS011;6325;49.540;8.364;2022-08-19T11:24:44;4.90;;;4.60;;
12519;SDS011;6325;49.540;8.364;2022-08-19T11:27:16;4.82;;;4.53;;
12519;SDS011;6325;49.540;8.364;2022-08-19T11:29:50;5.13;;;4.82;;
12519;SDS011;6325;49.540;8.364;2022-08-19T11:32:28;5.00;;;4.70;;
12519;SDS011;6325;49.540;8.364;2022-08-19T11:35:02;5.13;;;4.82;;
12519;SDS011;6325;49.540;8.364;2022-08-19T11:37:41;4.82;;;4.53;;
12519;SDS011;6325;49.540;8.364;2022-08-19T11:50:08;3.78;;;3.58;;
12519;SDS011;6325;49.540;8.364;2022-08-19T11:52:35;3.92;;;3.70;;
12519;SDS011;6325;49.540;8.364;2022-08-19T11:55:22;3.72;;;3.53;;
12519;SDS011;6325;49.540;8.364;2022-08-19T12:12:24;3.08;;;2.97;;
12519;SDS011;6325;49.540;8.364;2022-08-19T17:25:28;3.67;;;3.47;;
12519;SDS011;6325;49.540;8.364;2022-08-19T17:28:23;3.83;;;3.63;;
12519;SDS011;6325;49.540;8.364;2022-08-19T17:31:14;3.70;;;3.50;;
12519;SDS011;6325;49.540;8.364;2022-08-19T17:33:49;4.00;;;3.80;;
12519;SDS011;6325;49.540;8.364;2022-08-19T17:36:37;3.85;;;3.65;;
12519;SDS011;6325;49.540;8.364;2022-08-19T17:42:15;3.60;;;3.40;;
12519;SDS011;6325;49.540;8.364;2022-08-19T17:45:12;3.30;;;3.20;;
12519;SDS011;6325;49.540;8.364;2022-08-19T17:47:45;2.83;;;2.72;;
12519;SDS011;6325;49.540;8.364;2022-08-19T17:50:17;3.60;;;3.40;;
12519;SDS011;6325;49.540;8.364;2022-08-19T17:53:08;3.38;;;3.20;;
12519;SDS011;6325;49.540;8.364;2022-08-19T17:55:47;3.40;;;3.20;;
12519;SDS011;6325;49.540;8.364;2022-08-19T17:58:28;4.50;;;4.20;;
12519;SDS011;6325;49.540;8.364;2022-08-19T18:01:16;4.10;;;3.80;;
12519;SDS011;6325;49.540;8.364;2022-08-19T18:03:53;3.63;;;3.42;;
12519;SDS011;6325;49.540;8.364;2022-08-19T18:06:28;3.30;;;3.20;;
12519;SDS011;6325;49.540;8.364;2022-08-19T18:09:08;3.85;;;3.65;;
12519;SDS011;6325;49.540;8.364;2022-08-19T18:11:55;4.00;;;3.80;;
12519;SDS011;6325;49.540;8.364;2022-08-19T18:17:58;4.20;;;3.90;;
12519;SDS011;6325;49.540;8.364;2022-08-19T18:20:37;4.00;;;3.80;;
12519;SDS011;6325;49.540;8.364;2022-08-19T18:23:14;3.50;;;3.30;;
12519;SDS011;6325;49.540;8.364;2022-08-19T18:26:03;3.93;;;3.73;;
12519;SDS011;6325;49.540;8.364;2022-08-19T18:28:41;3.60;;;3.40;;
12519;SDS011;6325;49.540;8.364;2022-08-19T18:31:33;3.70;;;3.50;;
12519;SDS011;6325;49.540;8.364;2022-08-19T18:34:09;3.22;;;3.13;;
12519;SDS011;6325;49.540;8.364;2022-08-19T18:36:45;3.35;;;3.25;;
12519;SDS011;6325;49.540;8.364;2022-08-19T18:39:42;3.40;;;3.20;;
12519;SDS011;6325;49.540;8.364;2022-08-19T18:42:28;3.17;;;3.08;;
12519;SDS011;6325;49.540;8.364;2022-08-19T18:45:16;3.30;;;3.10;;
12519;SDS011;6325;49.540;8.364;2022-08-19T18:48:11;3.45;;;3.30;;
12519;SDS011;6325;49.540;8.364;2022-08-19T18:51:00;3.10;;;3.00;;
12519;SDS011;6325;49.540;8.364;2022-08-19T18:53:30;3.20;;;3.10;;
12519;SDS011;6325;49.540;8.364;2022-08-19T18:56:08;3.00;;;2.90;;
12519;SDS011;6325;49.540;8.364;2022-08-19T18:58:45;3.30;;;3.20;;
12519;SDS011;6325;49.540;8.364;2022-08-19T19:01:20;3.08;;;2.97;;
12519;SDS011;6325;49.540;8.364;2022-08-19T19:04:04;2.95;;;2.85;;
12519;SDS011;6325;49.540;8.364;2022-08-19T19:06:38;3.30;;;3.10;;
12519;SDS011;6325;49.540;8.364;2022-08-19T19:09:23;3.78;;;3.58;;
12519;SDS011;6325;49.540;8.364;2022-08-19T19:12:09;3.20;;;3.10;;
12519;SDS011;6325;49.540;8.364;2022-08-19T19:14:47;3.27;;;3.10;;
12519;SDS011;6325;49.540;8.364;2022-08-19T19:17:30;4.00;;;3.70;;
12519;SDS011;6325;49.540;8.364;2022-08-19T19:20:10;3.90;;;3.70;;
12519;SDS011;6325;49.540;8.364;2022-08-19T19:22:58;5.53;;;4.47;;
12519;SDS011;6325;49.540;8.364;2022-08-19T19:25:46;4.00;;;3.80;;
12519;SDS011;6325;49.540;8.364;2022-08-19T19:32:08;4.38;;;4.07;;
12519;SDS011;6325;49.540;8.364;2022-08-19T19:36:34;3.80;;;3.60;;
12519;SDS011;6325;49.540;8.364;2022-08-19T19:38:21;4.15;;;3.85;;
12519;SDS011;6325;49.540;8.364;2022-08-19T19:59:02;4.50;;;4.20;;
12519;SDS011;6325;49.540;8.364;2022-08-19T22:29:25;3.00;;;2.80;;
